Time;durP1;ratioP1;P1;durP2;ratioP2;P2;SDS_P1;SDS_P2;PMS_P1;PMS_P2;Temp;Humidity;BMP_temperature;BMP_pressure;BME280_temperature;BME280_humidity;BME280_pressure;Samples;Min_cycle;Max_cycle;Signal;HPM_P1;HPM_P2
2023/07/10 00:01:09;;;;;;;4.25;3.53;;;;;;;;;;5058966;28;20040;-84
2023/07/10 00:03:34;;;;;;;7.40;3.88;;;;;;;;;;5057980;28;20048;-82
2023/07/10 00:06:00;;;;;;;10.00;3.60;;;;;;;;;;5059221;28;20021;-81
2023/07/10 00:08:26;;;;;;;8.43;4.53;;;;;;;;;;5058275;28;20048;-81
2023/07/10 00:10:52;;;;;;;5.97;3.55;;;;;;;;;;5046892;28;20630;-83
2023/07/10 00:13:21;;;;;;;7.10;3.85;;;;;;;;;;5030834;28;20369;-82
2023/07/10 00:15:52;;;;;;;8.13;3.90;;;;;;;;;;5032186;28;20500;-82
2023/07/10 00:18:19;;;;;;;4.93;3.55;;;;;;;;;;5058395;28;20386;-82
2023/07/10 00:20:47;;;;;;;6.95;4.10;;;;;;;;;;5053087;28;20017;-83
2023/07/10 00:23:14;;;;;;;11.23;3.65;;;;;;;;;;5058009;28;20056;-82
2023/07/10 00:25:40;;;;;;;7.70;3.95;;;;;;;;;;5057737;28;20029;-82
2023/07/10 00:28:20;;;;;;;12.27;3.40;;;;;;;;;;5039963;28;20032;-81
2023/07/10 00:30:47;;;;;;;10.45;3.80;;;;;;;;;;5054623;28;20040;-83
2023/07/10 00:33:13;;;;;;;8.45;3.42;;;;;;;;;;5052273;28;20017;-83
2023/07/10 00:35:39;;;;;;;6.40;3.33;;;;;;;;;;5041963;28;20033;-83
2023/07/10 00:38:14;;;;;;;5.95;3.53;;;;;;;;;;5045594;28;20036;-83
2023/07/10 00:40:39;;;;;;;7.78;3.45;;;;;;;;;;5055581;28;20025;-82
2023/07/10 00:43:24;;;;;;;14.77;4.07;;;;;;;;;;5056614;28;20068;-82
2023/07/10 00:45:53;;;;;;;6.40;3.50;;;;;;;;;;5056689;28;20079;-83
2023/07/10 00:48:51;;;;;;;6.30;3.28;;;;;;;;;;5056029;28;20108;-83
2023/07/10 00:51:26;;;;;;;4.93;3.00;;;;;;;;;;5047046;28;20190;-82
2023/07/10 00:53:53;;;;;;;6.28;3.65;;;;;;;;;;5057982;28;20025;-83
2023/07/10 00:56:19;;;;;;;7.25;3.58;;;;;;;;;;5057763;28;20033;-83
2023/07/10 00:58:47;;;;;;;5.50;3.28;;;;;;;;;;5031843;28;20040;-82
2023/07/10 01:01:19;;;;;;;8.43;3.17;;;;;;;;;;5061104;28;20452;-81
2023/07/10 01:03:45;;;;;;;5.93;3.50;;;;;;;;;;5043838;28;20055;-82
2023/07/10 01:06:13;;;;;;;8.57;3.83;;;;;;;;;;5043387;28;20220;-82
2023/07/10 01:08:42;;;;;;;8.65;3.70;;;;;;;;;;5058525;28;20158;-82
2023/07/10 01:11:07;;;;;;;6.03;3.10;;;;;;;;;;5057295;28;20057;-82
2023/07/10 01:13:37;;;;;;;4.97;3.03;;;;;;;;;;5056515;28;20083;-82
2023/07/10 01:16:03;;;;;;;8.07;3.65;;;;;;;;;;5023555;28;20033;-83
2023/07/10 01:18:28;;;;;;;10.00;3.28;;;;;;;;;;5061466;28;20122;-82
2023/07/10 01:21:14;;;;;;;7.18;4.05;;;;;;;;;;5045037;28;20055;-82
2023/07/10 01:23:39;;;;;;;5.38;3.42;;;;;;;;;;5034918;28;20128;-84
2023/07/10 01:26:05;;;;;;;8.35;3.42;;;;;;;;;;5049509;28;20048;-84
2023/07/10 01:28:34;;;;;;;3.75;3.15;;;;;;;;;;5057077;28;20032;-83
2023/07/10 01:31:03;;;;;;;5.82;3.38;;;;;;;;;;5049564;28;20037;-82
2023/07/10 01:33:35;;;;;;;8.25;3.63;;;;;;;;;;5056971;28;20033;-84
2023/07/10 01:36:02;;;;;;;5.85;3.67;;;;;;;;;;5050244;28;20068;-83
2023/07/10 01:38:36;;;;;;;12.30;3.67;;;;;;;;;;5050126;28;20045;-83
2023/07/10 01:41:12;;;;;;;4.40;3.13;;;;;;;;;;5049572;28;20029;-82
2023/07/10 01:43:38;;;;;;;4.07;3.20;;;;;;;;;;5055151;28;20029;-82
2023/07/10 01:46:16;;;;;;;8.13;3.60;;;;;;;;;;5056818;28;20036;-82
2023/07/10 01:48:41;;;;;;;5.93;3.17;;;;;;;;;;5056421;28;20041;-82
2023/07/10 01:51:07;;;;;;;6.75;3.65;;;;;;;;;;5056861;28;20036;-85
2023/07/10 01:53:32;;;;;;;9.70;3.85;;;;;;;;;;5058088;28;20082;-82
2023/07/10 01:55:58;;;;;;;6.68;3.42;;;;;;;;;;5055317;28;20587;-82
2023/07/10 01:58:23;;;;;;;7.28;3.17;;;;;;;;;;5045278;28;20033;-84
2023/07/10 02:00:49;;;;;;;6.15;3.47;;;;;;;;;;5059005;28;20055;-85
2023/07/10 02:03:14;;;;;;;5.13;3.00;;;;;;;;;;5056016;28;20427;-82
2023/07/10 02:05:39;;;;;;;7.30;3.55;;;;;;;;;;5041288;28;20029;-83
2023/07/10 02:08:05;;;;;;;6.20;3.35;;;;;;;;;;5061598;28;20051;-82
2023/07/10 02:10:30;;;;;;;6.38;3.65;;;;;;;;;;5057835;28;20383;-81
2023/07/10 02:12:56;;;;;;;8.95;3.60;;;;;;;;;;5060003;28;20037;-83
2023/07/10 02:15:21;;;;;;;6.45;3.47;;;;;;;;;;5042928;28;20114;-82
2023/07/10 02:17:47;;;;;;;5.63;3.80;;;;;;;;;;5060986;28;20103;-81
2023/07/10 02:20:12;;;;;;;5.50;3.60;;;;;;;;;;5059892;28;20029;-83
2023/07/10 02:22:37;;;;;;;6.30;3.78;;;;;;;;;;5052000;28;20029;-82
2023/07/10 02:25:03;;;;;;;10.77;3.67;;;;;;;;;;5048305;28;20057;-82
2023/07/10 02:27:28;;;;;;;5.18;3.90;;;;;;;;;;5048469;28;20038;-82
2023/07/10 02:29:54;;;;;;;6.75;2.97;;;;;;;;;;5055993;28;20429;-81
2023/07/10 02:32:19;;;;;;;4.18;3.08;;;;;;;;;;5054569;28;20104;-82
2023/07/10 02:34:44;;;;;;;5.47;3.22;;;;;;;;;;5054065;28;20104;-82
2023/07/10 02:37:10;;;;;;;5.85;3.80;;;;;;;;;;5060364;28;20085;-82
2023/07/10 02:39:35;;;;;;;6.15;3.58;;;;;;;;;;5052953;28;20045;-83
2023/07/10 02:42:00;;;;;;;6.50;3.53;;;;;;;;;;5033778;28;20017;-83
2023/07/10 02:44:25;;;;;;;5.40;3.10;;;;;;;;;;5039466;28;20048;-80
2023/07/10 02:46:51;;;;;;;8.32;3.70;;;;;;;;;;5054692;28;20033;-82
2023/07/10 02:49:16;;;;;;;6.00;3.63;;;;;;;;;;5060441;28;20060;-83
2023/07/10 02:51:41;;;;;;;6.82;3.55;;;;;;;;;;5065687;23;20064;-74
2023/07/10 02:54:13;;;;;;;9.93;3.63;;;;;;;;;;5063005;28;20016;-74
2023/07/10 02:56:39;;;;;;;4.97;3.13;;;;;;;;;;5072498;28;20105;-74
2023/07/10 02:59:05;;;;;;;6.47;3.65;;;;;;;;;;5073001;28;20029;-74
2023/07/10 03:01:30;;;;;;;10.10;4.00;;;;;;;;;;5073230;28;20062;-74
2023/07/10 03:03:55;;;;;;;4.20;3.20;;;;;;;;;;5063701;28;20044;-74
2023/07/10 03:06:23;;;;;;;4.40;2.97;;;;;;;;;;5073571;28;20020;-74
2023/07/10 03:08:48;;;;;;;5.90;3.50;;;;;;;;;;5073392;28;20557;-74
2023/07/10 03:11:15;;;;;;;10.27;3.13;;;;;;;;;;5071966;28;20123;-74
2023/07/10 03:13:40;;;;;;;12.68;3.85;;;;;;;;;;5072731;28;20120;-74
2023/07/10 03:16:11;;;;;;;8.60;3.50;;;;;;;;;;5066747;28;20457;-74
2023/07/10 03:18:37;;;;;;;5.70;3.15;;;;;;;;;;5072839;28;20025;-73
2023/07/10 03:21:03;;;;;;;5.30;3.60;;;;;;;;;;5063303;28;20032;-74
2023/07/10 03:23:28;;;;;;;5.18;3.17;;;;;;;;;;5072956;28;20021;-74
2023/07/10 03:25:53;;;;;;;5.65;3.80;;;;;;;;;;5072681;28;20031;-74
2023/07/10 03:28:19;;;;;;;4.57;3.30;;;;;;;;;;5072648;28;20036;-74
2023/07/10 03:30:45;;;;;;;4.13;2.95;;;;;;;;;;5072394;28;20383;-74
2023/07/10 03:33:12;;;;;;;5.32;2.95;;;;;;;;;;5066630;28;20020;-74
2023/07/10 03:35:37;;;;;;;7.78;3.40;;;;;;;;;;5054793;28;20032;-74
2023/07/10 03:38:03;;;;;;;6.68;3.53;;;;;;;;;;5063382;28;20040;-74
2023/07/10 03:40:28;;;;;;;8.77;3.70;;;;;;;;;;5072527;28;20032;-74
2023/07/10 03:42:53;;;;;;;6.45;3.33;;;;;;;;;;5063790;28;20029;-74
2023/07/10 03:45:18;;;;;;;8.50;3.33;;;;;;;;;;5072430;28;20270;-74
2023/07/10 03:47:44;;;;;;;6.10;3.65;;;;;;;;;;5064410;28;20032;-74
2023/07/10 03:50:09;;;;;;;4.22;3.00;;;;;;;;;;5055461;28;20036;-74
2023/07/10 03:52:35;;;;;;;5.68;3.35;;;;;;;;;;5067488;28;20043;-74
2023/07/10 03:55:00;;;;;;;6.03;3.30;;;;;;;;;;5062823;28;20048;-72
2023/07/10 03:57:26;;;;;;;6.88;3.20;;;;;;;;;;5053500;28;20054;-74
2023/07/10 03:59:52;;;;;;;5.22;2.97;;;;;;;;;;5072489;28;20103;-74
2023/07/10 04:02:17;;;;;;;8.57;3.53;;;;;;;;;;5072044;28;20375;-74
2023/07/10 04:04:42;;;;;;;4.65;2.95;;;;;;;;;;5069643;28;20028;-74
2023/07/10 04:07:08;;;;;;;5.35;3.22;;;;;;;;;;5071886;28;20302;-74
2023/07/10 04:09:33;;;;;;;4.30;3.20;;;;;;;;;;5063636;28;20043;-74
2023/07/10 04:11:58;;;;;;;4.20;3.28;;;;;;;;;;5071571;28;20024;-74
2023/07/10 04:14:24;;;;;;;3.67;2.75;;;;;;;;;;5066321;28;20078;-74
2023/07/10 04:16:52;;;;;;;4.07;3.00;;;;;;;;;;5068378;28;20514;-74
2023/07/10 04:19:18;;;;;;;6.90;3.00;;;;;;;;;;5056138;28;20494;-74
2023/07/10 04:21:43;;;;;;;3.00;2.70;;;;;;;;;;5071665;28;20090;-72
2023/07/10 04:24:09;;;;;;;2.83;2.58;;;;;;;;;;5071383;28;20017;-74
2023/07/10 04:26:35;;;;;;;6.70;3.45;;;;;;;;;;5069129;28;20053;-72
2023/07/10 04:29:02;;;;;;;4.80;3.15;;;;;;;;;;5062358;28;20044;-72
2023/07/10 04:31:28;;;;;;;11.48;3.38;;;;;;;;;;5062919;28;20033;-72
2023/07/10 04:33:54;;;;;;;10.02;3.60;;;;;;;;;;5071000;28;20093;-74
2023/07/10 04:36:20;;;;;;;5.75;3.40;;;;;;;;;;5071518;28;20027;-72
2023/07/10 04:38:46;;;;;;;7.13;3.67;;;;;;;;;;5071884;28;20390;-72
2023/07/10 04:41:14;;;;;;;8.15;3.15;;;;;;;;;;5071387;28;20033;-73
2023/07/10 04:43:39;;;;;;;5.68;3.45;;;;;;;;;;5062778;28;20028;-72
2023/07/10 04:46:08;;;;;;;5.72;3.20;;;;;;;;;;5061921;28;20075;-72
2023/07/10 04:48:33;;;;;;;3.22;2.88;;;;;;;;;;5063922;28;20147;-72
2023/07/10 04:51:03;;;;;;;4.28;3.10;;;;;;;;;;5061058;28;20445;-73
2023/07/10 04:53:29;;;;;;;6.82;2.83;;;;;;;;;;5070911;28;20524;-73
2023/07/10 04:55:55;;;;;;;6.30;3.05;;;;;;;;;;5070123;28;20115;-73
2023/07/10 04:58:23;;;;;;;7.97;3.78;;;;;;;;;;5070777;28;20112;-73
2023/07/10 05:00:56;;;;;;;3.00;2.70;;;;;;;;;;5070831;28;20383;-73
2023/07/10 05:03:22;;;;;;;4.50;3.13;;;;;;;;;;5065762;28;20020;-73
2023/07/10 05:05:55;;;;;;;4.80;3.10;;;;;;;;;;5066932;28;20107;-73
2023/07/10 05:08:24;;;;;;;6.95;3.60;;;;;;;;;;5062050;28;20059;-73
2023/07/10 05:10:54;;;;;;;6.45;3.47;;;;;;;;;;5068335;28;20044;-73
2023/07/10 05:13:20;;;;;;;11.63;3.30;;;;;;;;;;5068750;28;20071;-73
2023/07/10 05:15:46;;;;;;;11.98;3.10;;;;;;;;;;5069081;28;20032;-73
2023/07/10 05:18:13;;;;;;;9.65;3.60;;;;;;;;;;5065427;28;20028;-73
2023/07/10 05:20:39;;;;;;;9.00;3.38;;;;;;;;;;5069731;28;20056;-73
2023/07/10 05:23:04;;;;;;;6.72;2.95;;;;;;;;;;5067054;28;20498;-73
2023/07/10 05:25:30;;;;;;;5.82;3.38;;;;;;;;;;5066237;28;20033;-73
2023/07/10 05:27:55;;;;;;;6.82;3.13;;;;;;;;;;5063537;28;20047;-73
2023/07/10 05:30:20;;;;;;;8.00;2.78;;;;;;;;;;5067988;28;20416;-73
2023/07/10 05:32:46;;;;;;;6.32;3.40;;;;;;;;;;5061193;28;20343;-73
2023/07/10 05:35:11;;;;;;;3.17;2.58;;;;;;;;;;5061458;28;20058;-73
2023/07/10 05:37:36;;;;;;;5.65;3.15;;;;;;;;;;5061016;28;20641;-73
2023/07/10 05:40:02;;;;;;;4.47;3.10;;;;;;;;;;5069713;28;20153;-72
2023/07/10 05:42:27;;;;;;;5.97;3.13;;;;;;;;;;5065091;28;20029;-74
2023/07/10 05:44:53;;;;;;;3.83;2.72;;;;;;;;;;5061187;28;20032;-73
2023/07/10 05:47:18;;;;;;;5.55;3.13;;;;;;;;;;5047477;28;20041;-73
2023/07/10 05:49:43;;;;;;;5.40;3.25;;;;;;;;;;5047942;28;20033;-73
2023/07/10 05:52:08;;;;;;;3.67;2.90;;;;;;;;;;5062776;28;20036;-73
2023/07/10 05:54:34;;;;;;;11.13;3.42;;;;;;;;;;5067034;28;20028;-73
2023/07/10 05:56:59;;;;;;;6.80;3.38;;;;;;;;;;5037493;28;20044;-73
2023/07/10 05:59:25;;;;;;;11.05;3.30;;;;;;;;;;5060579;28;20090;-73
2023/07/10 06:01:51;;;;;;;6.38;3.10;;;;;;;;;;5061318;28;20518;-73
2023/07/10 06:04:16;;;;;;;6.05;2.80;;;;;;;;;;5066063;28;20040;-73
2023/07/10 06:06:41;;;;;;;9.82;3.40;;;;;;;;;;5065302;28;20078;-73
2023/07/10 06:09:07;;;;;;;3.47;2.88;;;;;;;;;;5060747;28;20558;-73
2023/07/10 06:11:32;;;;;;;4.85;2.92;;;;;;;;;;5068572;28;20036;-73
2023/07/10 06:13:58;;;;;;;7.18;3.20;;;;;;;;;;5059851;28;20113;-73
2023/07/10 06:16:23;;;;;;;27.30;4.43;;;;;;;;;;5067842;28;20394;-73
2023/07/10 06:18:48;;;;;;;8.57;3.17;;;;;;;;;;5038964;28;20033;-73
2023/07/10 06:21:13;;;;;;;7.97;3.75;;;;;;;;;;5064957;28;20055;-73
2023/07/10 06:23:39;;;;;;;16.13;3.65;;;;;;;;;;5068784;28;20025;-74
2023/07/10 06:26:05;;;;;;;9.25;3.50;;;;;;;;;;5067095;28;20056;-73
2023/07/10 06:28:34;;;;;;;9.15;3.22;;;;;;;;;;5067020;28;20131;-73
2023/07/10 06:31:05;;;;;;;5.63;3.50;;;;;;;;;;5069423;28;20041;-73
2023/07/10 06:33:31;;;;;;;5.40;3.55;;;;;;;;;;5062367;28;20033;-73
2023/07/10 06:35:56;;;;;;;11.27;3.55;;;;;;;;;;5060901;28;20035;-73
2023/07/10 06:38:22;;;;;;;12.48;3.63;;;;;;;;;;5058435;28;20029;-73
2023/07/10 06:40:48;;;;;;;6.45;3.25;;;;;;;;;;5063733;28;20547;-73
2023/07/10 06:43:14;;;;;;;10.13;3.47;;;;;;;;;;5061517;28;20131;-73
2023/07/10 06:45:43;;;;;;;6.70;3.00;;;;;;;;;;5066936;28;20574;-73
2023/07/10 06:48:08;;;;;;;9.57;3.40;;;;;;;;;;5050253;28;20432;-73
2023/07/10 06:50:34;;;;;;;6.15;3.38;;;;;;;;;;5048123;28;20028;-73
2023/07/10 06:52:59;;;;;;;7.07;3.38;;;;;;;;;;5052057;28;20721;-73
2023/07/10 06:55:24;;;;;;;22.73;3.72;;;;;;;;;;5069499;28;20033;-74
2023/07/10 06:57:50;;;;;;;6.60;3.00;;;;;;;;;;5066187;28;20045;-74
2023/07/10 07:00:17;;;;;;;5.07;3.53;;;;;;;;;;5062674;28;20535;-74
2023/07/10 07:02:42;;;;;;;13.02;3.30;;;;;;;;;;5054966;28;20499;-74
2023/07/10 07:05:08;;;;;;;4.05;3.22;;;;;;;;;;5071003;28;20035;-74
2023/07/10 07:07:38;;;;;;;7.28;2.78;;;;;;;;;;5071461;28;20040;-74
2023/07/10 07:10:12;;;;;;;5.10;3.15;;;;;;;;;;5068938;28;20048;-74
2023/07/10 07:12:41;;;;;;;18.08;3.30;;;;;;;;;;5070992;28;20048;-74
2023/07/10 07:15:08;;;;;;;6.05;3.38;;;;;;;;;;5073522;28;20024;-74
2023/07/10 07:17:33;;;;;;;9.48;3.95;;;;;;;;;;5066906;28;20063;-74
2023/07/10 07:19:59;;;;;;;16.98;3.85;;;;;;;;;;5066342;28;20032;-74
2023/07/10 07:22:24;;;;;;;14.13;4.15;;;;;;;;;;5070958;28;20075;-74
2023/07/10 07:24:50;;;;;;;6.72;3.25;;;;;;;;;;5070883;28;20039;-74
2023/07/10 07:27:15;;;;;;;8.30;3.00;;;;;;;;;;5067778;28;20046;-74
2023/07/10 07:29:41;;;;;;;6.63;3.20;;;;;;;;;;5070979;28;20075;-74
2023/07/10 07:32:09;;;;;;;6.85;3.78;;;;;;;;;;5067931;28;20043;-73
2023/07/10 07:34:35;;;;;;;5.05;3.40;;;;;;;;;;5064789;28;20528;-73
2023/07/10 07:37:00;;;;;;;5.10;3.15;;;;;;;;;;5065903;28;20048;-74
2023/07/10 07:39:30;;;;;;;7.22;3.22;;;;;;;;;;5069870;28;20032;-73
2023/07/10 07:41:56;;;;;;;5.13;3.28;;;;;;;;;;5064963;28;20050;-73
2023/07/10 07:44:21;;;;;;;5.25;3.90;;;;;;;;;;5067501;28;20433;-73
2023/07/10 07:46:46;;;;;;;9.48;4.43;;;;;;;;;;5067753;28;20551;-74
2023/07/10 07:49:11;;;;;;;5.45;3.40;;;;;;;;;;5065402;28;20032;-74
2023/07/10 07:51:37;;;;;;;8.43;3.17;;;;;;;;;;5049589;28;20514;-74
2023/07/10 07:54:07;;;;;;;9.00;3.72;;;;;;;;;;5066990;28;20486;-73
2023/07/10 07:56:32;;;;;;;3.58;3.10;;;;;;;;;;5062940;28;20078;-74
2023/07/10 07:58:58;;;;;;;8.77;3.45;;;;;;;;;;5069431;28;20123;-73
2023/07/10 08:01:23;;;;;;;10.65;4.00;;;;;;;;;;5071018;28;20032;-73
2023/07/10 08:03:48;;;;;;;7.45;3.70;;;;;;;;;;5065889;28;20106;-73
2023/07/10 08:06:13;;;;;;;9.95;3.80;;;;;;;;;;5068237;28;20123;-73
2023/07/10 08:08:39;;;;;;;5.80;3.40;;;;;;;;;;5064399;28;20028;-73
2023/07/10 08:11:06;;;;;;;12.07;3.60;;;;;;;;;;5066398;28;20412;-73
2023/07/10 08:13:31;;;;;;;6.05;3.50;;;;;;;;;;5066081;28;20445;-73
2023/07/10 08:15:57;;;;;;;5.03;3.00;;;;;;;;;;5063349;28;20066;-73
2023/07/10 08:18:22;;;;;;;9.68;3.38;;;;;;;;;;5066605;28;20639;-73
2023/07/10 08:20:47;;;;;;;6.65;3.50;;;;;;;;;;5068486;28;20025;-73
2023/07/10 08:23:13;;;;;;;11.10;3.60;;;;;;;;;;5065876;28;20043;-73
2023/07/10 08:25:38;;;;;;;10.60;4.18;;;;;;;;;;5066209;28;20411;-73
2023/07/10 08:28:04;;;;;;;6.97;3.28;;;;;;;;;;5064213;28;20033;-74
2023/07/10 08:30:30;;;;;;;7.95;3.60;;;;;;;;;;5064129;28;20041;-73
2023/07/10 08:32:55;;;;;;;5.30;3.47;;;;;;;;;;5068322;28;20029;-73
2023/07/10 08:35:22;;;;;;;12.25;3.70;;;;;;;;;;5064382;28;20083;-74
2023/07/10 08:37:48;;;;;;;12.10;3.97;;;;;;;;;;5061770;28;20068;-74
2023/07/10 08:40:25;;;;;;;10.15;4.05;;;;;;;;;;5064068;28;20037;-76
2023/07/10 08:42:50;;;;;;;9.02;4.30;;;;;;;;;;5064755;28;20035;-73
2023/07/10 08:45:27;;;;;;;7.97;3.60;;;;;;;;;;5067353;28;20025;-73
2023/07/10 08:48:00;;;;;;;8.32;3.28;;;;;;;;;;5068552;28;20033;-73
2023/07/10 08:50:30;;;;;;;8.82;3.90;;;;;;;;;;5066317;28;20036;-73
2023/07/10 08:53:04;;;;;;;5.53;3.47;;;;;;;;;;5070088;28;20041;-75
2023/07/10 08:55:44;;;;;;;24.13;3.88;;;;;;;;;;5065904;28;20028;-75
2023/07/10 08:58:21;;;;;;;11.35;3.45;;;;;;;;;;5060780;28;20423;-76
2023/07/10 09:00:49;;;;;;;8.52;3.28;;;;;;;;;;5067466;28;20029;-76
2023/07/10 09:03:35;;;;;;;11.73;3.88;;;;;;;;;;5068606;28;20048;-76
2023/07/10 09:06:03;;;;;;;8.13;3.75;;;;;;;;;;5066255;28;20510;-76
2023/07/10 09:08:31;;;;;;;8.35;3.47;;;;;;;;;;5067012;28;20037;-75
2023/07/10 09:11:01;;;;;;;7.88;4.10;;;;;;;;;;5069853;28;20044;-75
2023/07/10 09:13:49;;;;;;;4.15;3.50;;;;;;;;;;5061294;28;20078;-75
2023/07/10 09:16:18;;;;;;;6.57;3.55;;;;;;;;;;5067356;28;20029;-75
2023/07/10 09:18:55;;;;;;;5.93;3.88;;;;;;;;;;5061774;28;20094;-75
2023/07/10 09:21:32;;;;;;;9.43;4.30;;;;;;;;;;5069013;28;20035;-75
2023/07/10 09:23:58;;;;;;;6.88;4.00;;;;;;;;;;5069500;28;20020;-75
2023/07/10 09:26:29;;;;;;;9.82;4.10;;;;;;;;;;5071908;28;20533;-75
2023/07/10 09:29:16;;;;;;;6.00;3.92;;;;;;;;;;5069726;28;20070;-75
2023/07/10 09:31:55;;;;;;;8.13;3.58;;;;;;;;;;5064504;28;20119;-75
2023/07/10 09:34:28;;;;;;;10.52;4.03;;;;;;;;;;5068105;28;20036;-75
2023/07/10 09:36:56;;;;;;;5.75;3.63;;;;;;;;;;5071588;28;20036;-75
2023/07/10 09:39:26;;;;;;;9.77;3.60;;;;;;;;;;5061875;28;20031;-75
2023/07/10 09:41:52;;;;;;;5.80;3.78;;;;;;;;;;5071476;28;20024;-75
2023/07/10 09:44:19;;;;;;;10.18;3.83;;;;;;;;;;5067039;28;20033;-75
2023/07/10 09:46:45;;;;;;;10.60;4.32;;;;;;;;;;5058035;28;20033;-75
2023/07/10 09:49:14;;;;;;;8.32;4.00;;;;;;;;;;5062386;28;20040;-75
2023/07/10 09:51:53;;;;;;;7.07;3.97;;;;;;;;;;5064422;28;20036;-75
2023/07/10 09:54:18;;;;;;;10.30;4.03;;;;;;;;;;5064162;28;20020;-75
2023/07/10 09:56:47;;;;;;;11.55;4.18;;;;;;;;;;5065242;28;20186;-75
2023/07/10 09:59:25;;;;;;;9.82;4.90;;;;;;;;;;5055681;28;20029;-75
2023/07/10 10:01:52;;;;;;;5.60;4.13;;;;;;;;;;5065165;28;20033;-75
2023/07/10 10:04:27;;;;;;;9.65;4.32;;;;;;;;;;5059680;28;20493;-76
2023/07/10 10:07:05;;;;;;;13.32;4.10;;;;;;;;;;5055690;28;20284;-75
2023/07/10 10:09:31;;;;;;;8.68;4.05;;;;;;;;;;5059594;28;20094;-76
2023/07/10 10:12:03;;;;;;;9.90;4.18;;;;;;;;;;5069690;28;20043;-76
2023/07/10 10:14:54;;;;;;;8.40;3.85;;;;;;;;;;5066134;28;20051;-75
2023/07/10 10:17:23;;;;;;;6.15;4.20;;;;;;;;;;5067691;28;20056;-75
2023/07/10 10:20:08;;;;;;;14.40;4.18;;;;;;;;;;5066702;28;20502;-75
2023/07/10 10:22:33;;;;;;;7.72;4.50;;;;;;;;;;5067388;28;20033;-75
2023/07/10 10:24:59;;;;;;;8.43;4.72;;;;;;;;;;5070675;28;20479;-75
2023/07/10 10:27:44;;;;;;;8.98;4.30;;;;;;;;;;5064488;28;20029;-74
2023/07/10 10:30:30;;;;;;;7.57;4.57;;;;;;;;;;5073176;28;20119;-77
2023/07/10 10:33:18;;;;;;;8.40;4.57;;;;;;;;;;5074099;28;20028;-74
2023/07/10 10:35:55;;;;;;;8.88;4.43;;;;;;;;;;5071776;28;20506;-74
2023/07/10 10:38:51;;;;;;;12.43;4.65;;;;;;;;;;5071734;28;20032;-74
2023/07/10 10:41:37;;;;;;;10.38;4.63;;;;;;;;;;5072956;28;20030;-75
2023/07/10 10:44:44;;;;;;;8.50;4.15;;;;;;;;;;5071177;28;20028;-75
2023/07/10 10:47:31;;;;;;;10.85;4.68;;;;;;;;;;5062272;28;20033;-75
2023/07/10 10:50:21;;;;;;;10.23;3.95;;;;;;;;;;5057496;28;20044;-76
2023/07/10 10:53:15;;;;;;;7.38;4.07;;;;;;;;;;5067635;28;20037;-75
2023/07/10 10:55:52;;;;;;;5.88;4.40;;;;;;;;;;5070047;28;20510;-75
2023/07/10 10:58:27;;;;;;;5.22;4.10;;;;;;;;;;5066560;28;20040;-76
2023/07/10 11:01:14;;;;;;;9.10;4.20;;;;;;;;;;5072138;28;20459;-75
2023/07/10 11:03:45;;;;;;;7.82;4.13;;;;;;;;;;5069970;28;20033;-76
2023/07/10 11:06:25;;;;;;;6.00;4.00;;;;;;;;;;5069969;28;20524;-75
2023/07/10 11:08:55;;;;;;;9.98;4.18;;;;;;;;;;5070667;28;20060;-75
2023/07/10 11:11:26;;;;;;;9.43;4.50;;;;;;;;;;5069226;28;21988;-75
2023/07/10 11:13:52;;;;;;;5.97;4.15;;;;;;;;;;5051451;28;20033;-76
2023/07/10 11:16:18;;;;;;;10.55;4.72;;;;;;;;;;5068683;28;20058;-76
2023/07/10 11:18:44;;;;;;;5.28;4.10;;;;;;;;;;5068696;28;20041;-75
2023/07/10 11:21:09;;;;;;;5.60;4.07;;;;;;;;;;5075312;28;20111;-77
2023/07/10 11:23:36;;;;;;;9.40;4.30;;;;;;;;;;5070237;28;20119;-76
2023/07/10 11:26:25;;;;;;;9.27;4.00;;;;;;;;;;5071676;28;20032;-78
2023/07/10 11:28:59;;;;;;;5.55;4.40;;;;;;;;;;5052723;28;20040;-76
2023/07/10 11:31:31;;;;;;;7.28;4.00;;;;;;;;;;5059374;28;20536;-76
2023/07/10 11:34:05;;;;;;;7.28;4.22;;;;;;;;;;5074413;28;20445;-77
2023/07/10 11:36:33;;;;;;;9.52;4.80;;;;;;;;;;5068776;28;20028;-76
2023/07/10 11:39:11;;;;;;;6.05;3.95;;;;;;;;;;5071440;28;20048;-76
2023/07/10 11:41:43;;;;;;;10.80;4.70;;;;;;;;;;5074216;28;20441;-76
2023/07/10 11:44:21;;;;;;;8.60;4.80;;;;;;;;;;5068024;28;20398;-76
2023/07/10 11:47:04;;;;;;;6.35;4.35;;;;;;;;;;5056640;28;20041;-76
2023/07/10 11:49:52;;;;;;;12.20;4.55;;;;;;;;;;5067008;28;20039;-76
2023/07/10 11:52:17;;;;;;;8.85;4.90;;;;;;;;;;5066867;28;20029;-76
2023/07/10 11:54:48;;;;;;;10.10;4.23;;;;;;;;;;5073205;28;20064;-76
2023/07/10 11:57:26;;;;;;;7.75;4.18;;;;;;;;;;5057876;28;20361;-75
2023/07/10 11:59:55;;;;;;;10.32;4.40;;;;;;;;;;5071219;28;20099;-76
2023/07/10 12:02:39;;;;;;;5.85;4.38;;;;;;;;;;5067029;28;20040;-76
2023/07/10 12:05:14;;;;;;;7.40;4.10;;;;;;;;;;5055271;28;20033;-76
2023/07/10 12:08:01;;;;;;;7.32;4.22;;;;;;;;;;5068966;28;20498;-76
2023/07/10 12:10:29;;;;;;;7.90;4.55;;;;;;;;;;5070010;28;20051;-76
2023/07/10 12:12:55;;;;;;;6.15;4.40;;;;;;;;;;5060938;28;20056;-76
2023/07/10 12:15:20;;;;;;;7.82;4.50;;;;;;;;;;5070833;28;20103;-77
2023/07/10 12:17:48;;;;;;;9.93;4.70;;;;;;;;;;5066486;28;20112;-76
2023/07/10 12:20:42;;;;;;;5.75;4.45;;;;;;;;;;5064546;28;20502;-77
2023/07/10 12:23:12;;;;;;;12.13;4.35;;;;;;;;;;5048619;28;20036;-76
2023/07/10 12:25:38;;;;;;;6.22;4.43;;;;;;;;;;5062631;28;20060;-76
2023/07/10 12:28:12;;;;;;;8.57;4.28;;;;;;;;;;5066254;28;20071;-76
2023/07/10 12:30:38;;;;;;;4.82;4.18;;;;;;;;;;5068031;28;20037;-76
2023/07/10 12:33:18;;;;;;;7.95;5.05;;;;;;;;;;5065289;28;20430;-77
2023/07/10 12:35:44;;;;;;;8.68;4.57;;;;;;;;;;5066815;28;20028;-76
2023/07/10 12:38:10;;;;;;;10.55;4.90;;;;;;;;;;5070816;28;20174;-76
2023/07/10 12:40:37;;;;;;;7.60;4.85;;;;;;;;;;5052768;28;20384;-76
2023/07/10 12:43:21;;;;;;;9.77;4.80;;;;;;;;;;5072556;28;20032;-76
2023/07/10 12:45:46;;;;;;;8.40;4.63;;;;;;;;;;5069758;28;20029;-76
2023/07/10 12:48:15;;;;;;;6.30;4.40;;;;;;;;;;5068377;28;20025;-76
2023/07/10 12:50:52;;;;;;;11.07;4.63;;;;;;;;;;5071275;28;20463;-76
2023/07/10 12:53:20;;;;;;;7.57;4.38;;;;;;;;;;5062433;28;20028;-76
2023/07/10 12:55:47;;;;;;;7.15;4.45;;;;;;;;;;5068536;28;20028;-76
2023/07/10 12:58:15;;;;;;;12.35;4.47;;;;;;;;;;5058603;28;20086;-76
2023/07/10 13:00:56;;;;;;;5.13;4.13;;;;;;;;;;5068417;28;20041;-76
2023/07/10 13:03:28;;;;;;;8.35;4.55;;;;;;;;;;5065311;28;20028;-76
2023/07/10 13:05:57;;;;;;;7.43;4.20;;;;;;;;;;5065300;28;20032;-76
2023/07/10 13:08:54;;;;;;;14.93;4.72;;;;;;;;;;5062911;28;20028;-75
2023/07/10 13:11:21;;;;;;;8.00;3.60;;;;;;;;;;5041421;28;20128;-75
2023/07/10 13:13:47;;;;;;;4.88;3.72;;;;;;;;;;5068361;28;20037;-75
2023/07/10 13:16:20;;;;;;;5.20;3.60;;;;;;;;;;5068117;28;20042;-75
2023/07/10 13:18:45;;;;;;;10.55;4.00;;;;;;;;;;5066026;28;20040;-75
2023/07/10 13:21:16;;;;;;;14.45;3.85;;;;;;;;;;5064040;28;20544;-78
2023/07/10 13:23:41;;;;;;;12.07;4.05;;;;;;;;;;5066450;28;20061;-75
2023/07/10 13:26:24;;;;;;;8.77;4.13;;;;;;;;;;5064660;28;20056;-75
2023/07/10 13:28:51;;;;;;;5.93;4.05;;;;;;;;;;5063070;28;20119;-75
2023/07/10 13:31:21;;;;;;;6.18;4.35;;;;;;;;;;5067363;28;20044;-76
2023/07/10 13:33:46;;;;;;;9.15;4.10;;;;;;;;;;5066427;28;20589;-75
2023/07/10 13:36:15;;;;;;;5.32;4.13;;;;;;;;;;5068437;28;20024;-76
2023/07/10 13:38:41;;;;;;;9.10;4.20;;;;;;;;;;5067903;28;20025;-76
2023/07/10 13:41:11;;;;;;;8.48;4.32;;;;;;;;;;5048218;28;20031;-75
2023/07/10 13:43:37;;;;;;;8.10;4.35;;;;;;;;;;5065305;28;20028;-75
2023/07/10 13:46:23;;;;;;;15.13;4.03;;;;;;;;;;5066921;28;20043;-76
2023/07/10 13:48:51;;;;;;;13.15;4.22;;;;;;;;;;5066837;28;20039;-75
2023/07/10 13:51:19;;;;;;;7.97;4.00;;;;;;;;;;5066587;28;20171;-76
2023/07/10 13:53:44;;;;;;;8.52;4.07;;;;;;;;;;5067301;28;20032;-76
2023/07/10 13:56:13;;;;;;;5.53;3.65;;;;;;;;;;5057110;28;20033;-75
2023/07/10 13:58:38;;;;;;;6.80;3.80;;;;;;;;;;5068077;28;20283;-75
2023/07/10 14:01:04;;;;;;;5.60;3.90;;;;;;;;;;5069338;28;20501;-78
2023/07/10 14:03:29;;;;;;;6.40;3.55;;;;;;;;;;5066873;28;20049;-78
2023/07/10 14:05:55;;;;;;;4.60;3.60;;;;;;;;;;5065153;28;20397;-77
2023/07/10 14:08:27;;;;;;;6.00;3.35;;;;;;;;;;5067589;28;20572;-78
2023/07/10 14:10:55;;;;;;;4.05;3.35;;;;;;;;;;5065138;28;20115;-75
2023/07/10 14:13:20;;;;;;;6.43;3.30;;;;;;;;;;5068018;28;20119;-76
2023/07/10 14:15:53;;;;;;;7.18;4.22;;;;;;;;;;5049364;28;20432;-76
2023/07/10 14:18:25;;;;;;;3.63;3.22;;;;;;;;;;5043167;28;20044;-77
2023/07/10 14:20:50;;;;;;;5.57;3.25;;;;;;;;;;5058509;28;20044;-77
2023/07/10 14:23:18;;;;;;;4.93;3.47;;;;;;;;;;5057184;28;20048;-78
2023/07/10 14:25:44;;;;;;;6.18;3.30;;;;;;;;;;5067733;28;20115;-78
2023/07/10 14:28:17;;;;;;;8.15;4.00;;;;;;;;;;5068849;28;20128;-75
2023/07/10 14:30:43;;;;;;;10.85;3.97;;;;;;;;;;5066637;28;20097;-75
2023/07/10 14:33:09;;;;;;;9.38;3.40;;;;;;;;;;5064523;28;20023;-75
2023/07/10 14:35:35;;;;;;;5.82;3.40;;;;;;;;;;5061052;28;20074;-75
2023/07/10 14:38:01;;;;;;;13.63;4.03;;;;;;;;;;5059143;28;20067;-75
2023/07/10 14:40:26;;;;;;;4.03;3.63;;;;;;;;;;5062398;28;20123;-75
2023/07/10 14:42:52;;;;;;;9.32;3.75;;;;;;;;;;5066147;28;20028;-75
2023/07/10 14:45:18;;;;;;;7.88;3.85;;;;;;;;;;5067651;28;20017;-75
2023/07/10 14:47:45;;;;;;;4.95;3.30;;;;;;;;;;5063532;28;20419;-75
2023/07/10 14:50:11;;;;;;;14.82;4.03;;;;;;;;;;5067231;28;20533;-77
2023/07/10 14:52:38;;;;;;;7.07;3.55;;;;;;;;;;5065518;28;20032;-74